sensor_id;sensor_type;location;lat;lon;timestamp;P1;durP1;ratioP1;P2;durP2;ratioP2
61897;SDS011;47850;50.274;18.908;2023-03-15T00:00:02;2.10;;;1.20;;
61897;SDS011;47850;50.274;18.908;2023-03-15T00:03:11;1.80;;;0.80;;
61897;SDS011;47850;50.274;18.908;2023-03-15T00:05:41;1.20;;;0.80;;
61897;SDS011;47850;50.274;18.908;2023-03-15T00:08:11;3.00;;;1.10;;
61897;SDS011;47850;50.274;18.908;2023-03-15T00:10:41;2.60;;;1.10;;
61897;SDS011;47850;50.274;18.908;2023-03-15T00:13:10;5.90;;;1.70;;
61897;SDS011;47850;50.274;18.908;2023-03-15T00:15:45;2.40;;;1.10;;
61897;SDS011;47850;50.274;18.908;2023-03-15T00:18:15;4.10;;;1.40;;
61897;SDS011;47850;50.274;18.908;2023-03-15T00:20:44;3.90;;;1.30;;
61897;SDS011;47850;50.274;18.908;2023-03-15T00:23:14;5.10;;;1.40;;
61897;SDS011;47850;50.274;18.908;2023-03-15T00:25:43;1.90;;;1.00;;
61897;SDS011;47850;50.274;18.908;2023-03-15T00:28:12;2.90;;;1.30;;
61897;SDS011;47850;50.274;18.908;2023-03-15T00:30:41;1.60;;;0.90;;
61897;SDS011;47850;50.274;18.908;2023-03-15T00:33:12;2.10;;;1.20;;
61897;SDS011;47850;50.274;18.908;2023-03-15T00:35:43;3.40;;;1.40;;
61897;SDS011;47850;50.274;18.908;2023-03-15T00:38:12;4.60;;;1.40;;
61897;SDS011;47850;50.274;18.908;2023-03-15T00:40:40;3.60;;;1.70;;
61897;SDS011;47850;50.274;18.908;2023-03-15T00:43:08;2.80;;;1.10;;
61897;SDS011;47850;50.274;18.908;2023-03-15T00:45:36;5.20;;;2.00;;
61897;SDS011;47850;50.274;18.908;2023-03-15T00:48:06;6.40;;;2.30;;
61897;SDS011;47850;50.274;18.908;2023-03-15T00:50:33;3.00;;;1.40;;
61897;SDS011;47850;50.274;18.908;2023-03-15T00:53:01;2.90;;;1.30;;
61897;SDS011;47850;50.274;18.908;2023-03-15T00:55:29;3.30;;;1.20;;
61897;SDS011;47850;50.274;18.908;2023-03-15T00:57:57;4.40;;;1.70;;
61897;SDS011;47850;50.274;18.908;2023-03-15T01:00:25;2.20;;;1.30;;
61897;SDS011;47850;50.274;18.908;2023-03-15T01:02:54;1.70;;;1.20;;
61897;SDS011;47850;50.274;18.908;2023-03-15T01:05:22;3.20;;;1.80;;
61897;SDS011;47850;50.274;18.908;2023-03-15T01:07:50;1.60;;;0.90;;
61897;SDS011;47850;50.274;18.908;2023-03-15T01:10:18;2.20;;;1.50;;
61897;SDS011;47850;50.274;18.908;2023-03-15T01:12:46;2.70;;;1.20;;
61897;SDS011;47850;50.274;18.908;2023-03-15T01:15:14;4.00;;;1.60;;
61897;SDS011;47850;50.274;18.908;2023-03-15T01:17:42;2.50;;;1.40;;
61897;SDS011;47850;50.274;18.908;2023-03-15T01:20:13;6.30;;;1.70;;
61897;SDS011;47850;50.274;18.908;2023-03-15T01:22:42;1.50;;;1.00;;
61897;SDS011;47850;50.274;18.908;2023-03-15T01:25:10;3.00;;;1.80;;
61897;SDS011;47850;50.274;18.908;2023-03-15T01:27:37;3.80;;;1.80;;
61897;SDS011;47850;50.274;18.908;2023-03-15T01:30:10;4.30;;;2.00;;
61897;SDS011;47850;50.274;18.908;2023-03-15T01:32:38;2.60;;;1.70;;
61897;SDS011;47850;50.274;18.908;2023-03-15T01:35:06;4.50;;;2.10;;
61897;SDS011;47850;50.274;18.908;2023-03-15T01:37:34;2.70;;;1.50;;
61897;SDS011;47850;50.274;18.908;2023-03-15T01:40:02;6.80;;;2.30;;
61897;SDS011;47850;50.274;18.908;2023-03-15T01:42:39;4.60;;;2.60;;
61897;SDS011;47850;50.274;18.908;2023-03-15T01:48:17;5.60;;;2.00;;
61897;SDS011;47850;50.274;18.908;2023-03-15T01:50:50;4.90;;;2.00;;
61897;SDS011;47850;50.274;18.908;2023-03-15T01:53:22;3.40;;;1.90;;
61897;SDS011;47850;50.274;18.908;2023-03-15T01:55:52;2.80;;;1.40;;
61897;SDS011;47850;50.274;18.908;2023-03-15T01:58:21;4.80;;;2.30;;
61897;SDS011;47850;50.274;18.908;2023-03-15T02:00:52;6.00;;;2.20;;
61897;SDS011;47850;50.274;18.908;2023-03-15T02:03:22;5.90;;;2.20;;
61897;SDS011;47850;50.274;18.908;2023-03-15T02:05:58;7.80;;;2.90;;
61897;SDS011;47850;50.274;18.908;2023-03-15T02:08:35;6.40;;;2.30;;
61897;SDS011;47850;50.274;18.908;2023-03-15T02:11:08;4.10;;;1.90;;
61897;SDS011;47850;50.274;18.908;2023-03-15T02:13:38;3.80;;;1.80;;
61897;SDS011;47850;50.274;18.908;2023-03-15T02:16:06;3.60;;;1.60;;
61897;SDS011;47850;50.274;18.908;2023-03-15T02:18:34;10.20;;;2.40;;
61897;SDS011;47850;50.274;18.908;2023-03-15T02:23:40;7.20;;;2.50;;
61897;SDS011;47850;50.274;18.908;2023-03-15T02:28:38;3.40;;;2.00;;
61897;SDS011;47850;50.274;18.908;2023-03-15T02:31:07;3.50;;;1.80;;
61897;SDS011;47850;50.274;18.908;2023-03-15T02:33:39;7.40;;;2.80;;
61897;SDS011;47850;50.274;18.908;2023-03-15T02:38:55;6.40;;;2.80;;
61897;SDS011;47850;50.274;18.908;2023-03-15T02:41:31;4.80;;;2.20;;
61897;SDS011;47850;50.274;18.908;2023-03-15T02:44:17;8.30;;;3.40;;
61897;SDS011;47850;50.274;18.908;2023-03-15T02:46:50;4.30;;;2.00;;
61897;SDS011;47850;50.274;18.908;2023-03-15T02:51:54;7.50;;;2.40;;
61897;SDS011;47850;50.274;18.908;2023-03-15T02:54:22;5.50;;;2.10;;
61897;SDS011;47850;50.274;18.908;2023-03-15T02:56:50;6.80;;;2.60;;
61897;SDS011;47850;50.274;18.908;2023-03-15T02:59:17;5.60;;;2.50;;
61897;SDS011;47850;50.274;18.908;2023-03-15T03:01:45;9.40;;;3.60;;
61897;SDS011;47850;50.274;18.908;2023-03-15T03:04:13;6.00;;;3.20;;
61897;SDS011;47850;50.274;18.908;2023-03-15T03:06:41;10.70;;;2.90;;
61897;SDS011;47850;50.274;18.908;2023-03-15T03:09:10;7.50;;;3.10;;
61897;SDS011;47850;50.274;18.908;2023-03-15T03:11:38;8.00;;;3.60;;
61897;SDS011;47850;50.274;18.908;2023-03-15T03:14:06;6.20;;;2.50;;
61897;SDS011;47850;50.274;18.908;2023-03-15T03:16:34;7.60;;;3.40;;
61897;SDS011;47850;50.274;18.908;2023-03-15T03:19:02;10.90;;;3.70;;
61897;SDS011;47850;50.274;18.908;2023-03-15T03:21:30;8.10;;;3.60;;
61897;SDS011;47850;50.274;18.908;2023-03-15T03:23:58;10.20;;;4.30;;
61897;SDS011;47850;50.274;18.908;2023-03-15T03:26:26;8.80;;;4.00;;
61897;SDS011;47850;50.274;18.908;2023-03-15T03:28:54;8.80;;;3.60;;
61897;SDS011;47850;50.274;18.908;2023-03-15T03:31:24;6.50;;;3.30;;
61897;SDS011;47850;50.274;18.908;2023-03-15T03:33:54;9.80;;;3.70;;
61897;SDS011;47850;50.274;18.908;2023-03-15T03:36:23;8.00;;;4.50;;
61897;SDS011;47850;50.274;18.908;2023-03-15T03:38:51;10.10;;;3.60;;
61897;SDS011;47850;50.274;18.908;2023-03-15T03:41:23;11.70;;;5.00;;
61897;SDS011;47850;50.274;18.908;2023-03-15T03:43:51;7.80;;;4.40;;
61897;SDS011;47850;50.274;18.908;2023-03-15T03:46:19;10.60;;;4.20;;
61897;SDS011;47850;50.274;18.908;2023-03-15T03:48:47;7.60;;;4.30;;
61897;SDS011;47850;50.274;18.908;2023-03-15T03:51:15;7.50;;;4.30;;
61897;SDS011;47850;50.274;18.908;2023-03-15T03:53:43;16.10;;;5.20;;
61897;SDS011;47850;50.274;18.908;2023-03-15T03:56:10;11.90;;;4.60;;
61897;SDS011;47850;50.274;18.908;2023-03-15T03:58:38;10.20;;;4.40;;
61897;SDS011;47850;50.274;18.908;2023-03-15T04:01:06;9.40;;;4.10;;
61897;SDS011;47850;50.274;18.908;2023-03-15T04:03:34;9.30;;;5.00;;
61897;SDS011;47850;50.274;18.908;2023-03-15T04:06:02;6.10;;;3.20;;
61897;SDS011;47850;50.274;18.908;2023-03-15T04:08:32;12.50;;;4.10;;
61897;SDS011;47850;50.274;18.908;2023-03-15T04:11:00;8.80;;;4.40;;
61897;SDS011;47850;50.274;18.908;2023-03-15T04:13:30;7.80;;;3.50;;
61897;SDS011;47850;50.274;18.908;2023-03-15T04:15:58;8.30;;;3.80;;
61897;SDS011;47850;50.274;18.908;2023-03-15T04:18:27;11.20;;;4.30;;
61897;SDS011;47850;50.274;18.908;2023-03-15T04:20:57;10.70;;;3.80;;
61897;SDS011;47850;50.274;18.908;2023-03-15T04:23:24;7.10;;;4.10;;
61897;SDS011;47850;50.274;18.908;2023-03-15T04:25:52;8.80;;;4.20;;
61897;SDS011;47850;50.274;18.908;2023-03-15T04:28:24;13.30;;;4.50;;
61897;SDS011;47850;50.274;18.908;2023-03-15T04:30:52;11.60;;;4.30;;
61897;SDS011;47850;50.274;18.908;2023-03-15T04:33:25;6.20;;;3.40;;
61897;SDS011;47850;50.274;18.908;2023-03-15T04:35:53;7.60;;;3.30;;
61897;SDS011;47850;50.274;18.908;2023-03-15T04:38:21;12.50;;;4.50;;
61897;SDS011;47850;50.274;18.908;2023-03-15T04:40:53;12.70;;;5.40;;
61897;SDS011;47850;50.274;18.908;2023-03-15T04:43:21;9.90;;;4.80;;
61897;SDS011;47850;50.274;18.908;2023-03-15T04:45:50;9.90;;;4.70;;
61897;SDS011;47850;50.274;18.908;2023-03-15T04:48:18;8.80;;;4.20;;
61897;SDS011;47850;50.274;18.908;2023-03-15T04:50:46;10.70;;;3.80;;
61897;SDS011;47850;50.274;18.908;2023-03-15T04:53:15;15.00;;;4.80;;
61897;SDS011;47850;50.274;18.908;2023-03-15T04:55:43;9.50;;;3.50;;
61897;SDS011;47850;50.274;18.908;2023-03-15T04:58:11;11.70;;;3.80;;
61897;SDS011;47850;50.274;18.908;2023-03-15T05:00:39;9.90;;;4.60;;
61897;SDS011;47850;50.274;18.908;2023-03-15T05:03:07;14.40;;;5.10;;
61897;SDS011;47850;50.274;18.908;2023-03-15T05:05:35;11.20;;;3.80;;
61897;SDS011;47850;50.274;18.908;2023-03-15T05:08:02;10.60;;;3.60;;
61897;SDS011;47850;50.274;18.908;2023-03-15T05:10:30;12.60;;;5.00;;
61897;SDS011;47850;50.274;18.908;2023-03-15T05:12:59;10.50;;;4.70;;
61897;SDS011;47850;50.274;18.908;2023-03-15T05:15:27;12.90;;;4.60;;
61897;SDS011;47850;50.274;18.908;2023-03-15T05:17:55;12.40;;;4.40;;
61897;SDS011;47850;50.274;18.908;2023-03-15T05:20:23;13.80;;;5.30;;
61897;SDS011;47850;50.274;18.908;2023-03-15T05:22:52;11.70;;;4.80;;
61897;SDS011;47850;50.274;18.908;2023-03-15T05:25:20;9.30;;;3.70;;
61897;SDS011;47850;50.274;18.908;2023-03-15T05:27:47;8.30;;;3.70;;
61897;SDS011;47850;50.274;18.908;2023-03-15T05:30:15;10.60;;;4.10;;
61897;SDS011;47850;50.274;18.908;2023-03-15T05:32:43;8.40;;;3.40;;
61897;SDS011;47850;50.274;18.908;2023-03-15T05:35:11;8.30;;;3.70;;
61897;SDS011;47850;50.274;18.908;2023-03-15T05:37:40;10.30;;;3.50;;
61897;SDS011;47850;50.274;18.908;2023-03-15T05:40:09;14.20;;;4.60;;
61897;SDS011;47850;50.274;18.908;2023-03-15T05:42:38;7.80;;;3.50;;
61897;SDS011;47850;50.274;18.908;2023-03-15T05:45:06;11.90;;;3.50;;
61897;SDS011;47850;50.274;18.908;2023-03-15T05:47:34;8.50;;;3.30;;
61897;SDS011;47850;50.274;18.908;2023-03-15T05:50:02;7.10;;;2.90;;
61897;SDS011;47850;50.274;18.908;2023-03-15T05:52:31;17.40;;;5.70;;
61897;SDS011;47850;50.274;18.908;2023-03-15T05:54:59;14.60;;;4.30;;
61897;SDS011;47850;50.274;18.908;2023-03-15T05:57:27;16.80;;;6.40;;
61897;SDS011;47850;50.274;18.908;2023-03-15T05:59:55;10.60;;;4.10;;
61897;SDS011;47850;50.274;18.908;2023-03-15T06:02:22;11.00;;;4.50;;
61897;SDS011;47850;50.274;18.908;2023-03-15T06:04:50;13.30;;;4.30;;
61897;SDS011;47850;50.274;18.908;2023-03-15T06:07:18;10.90;;;3.20;;
61897;SDS011;47850;50.274;18.908;2023-03-15T06:09:47;14.30;;;4.20;;
61897;SDS011;47850;50.274;18.908;2023-03-15T06:12:15;15.40;;;5.20;;
61897;SDS011;47850;50.274;18.908;2023-03-15T06:14:43;16.80;;;6.70;;
61897;SDS011;47850;50.274;18.908;2023-03-15T06:17:11;22.70;;;9.20;;
61897;SDS011;47850;50.274;18.908;2023-03-15T06:19:39;16.00;;;5.10;;
61897;SDS011;47850;50.274;18.908;2023-03-15T06:22:07;14.40;;;4.60;;
61897;SDS011;47850;50.274;18.908;2023-03-15T06:24:35;8.20;;;2.90;;
61897;SDS011;47850;50.274;18.908;2023-03-15T06:27:02;9.20;;;4.20;;
61897;SDS011;47850;50.274;18.908;2023-03-15T06:29:30;12.60;;;3.80;;
61897;SDS011;47850;50.274;18.908;2023-03-15T06:31:58;13.50;;;3.30;;
61897;SDS011;47850;50.274;18.908;2023-03-15T06:34:26;13.30;;;3.50;;
61897;SDS011;47850;50.274;18.908;2023-03-15T06:36:54;13.40;;;3.60;;
61897;SDS011;47850;50.274;18.908;2023-03-15T06:39:22;7.60;;;2.40;;
61897;SDS011;47850;50.274;18.908;2023-03-15T06:41:50;7.90;;;2.20;;
61897;SDS011;47850;50.274;18.908;2023-03-15T06:44:20;11.00;;;3.30;;
61897;SDS011;47850;50.274;18.908;2023-03-15T06:46:48;10.50;;;2.90;;
61897;SDS011;47850;50.274;18.908;2023-03-15T06:49:16;12.20;;;3.00;;
61897;SDS011;47850;50.274;18.908;2023-03-15T06:51:44;9.70;;;3.50;;
61897;SDS011;47850;50.274;18.908;2023-03-15T06:54:12;13.10;;;3.80;;
61897;SDS011;47850;50.274;18.908;2023-03-15T06:56:39;9.20;;;3.00;;
61897;SDS011;47850;50.274;18.908;2023-03-15T06:59:07;12.90;;;3.10;;
61897;SDS011;47850;50.274;18.908;2023-03-15T07:01:36;9.10;;;2.50;;
61897;SDS011;47850;50.274;18.908;2023-03-15T07:04:04;12.80;;;3.10;;
61897;SDS011;47850;50.274;18.908;2023-03-15T07:06:32;5.30;;;2.40;;
61897;SDS011;47850;50.274;18.908;2023-03-15T07:09:00;9.50;;;3.10;;
61897;SDS011;47850;50.274;18.908;2023-03-15T07:11:30;8.90;;;2.70;;
61897;SDS011;47850;50.274;18.908;2023-03-15T07:13:59;7.80;;;2.80;;
61897;SDS011;47850;50.274;18.908;2023-03-15T07:16:27;8.00;;;2.60;;
61897;SDS011;47850;50.274;18.908;2023-03-15T07:18:55;8.70;;;2.80;;
61897;SDS011;47850;50.274;18.908;2023-03-15T07:21:25;12.90;;;3.30;;
61897;SDS011;47850;50.274;18.908;2023-03-15T07:23:54;15.60;;;4.00;;
61897;SDS011;47850;50.274;18.908;2023-03-15T07:26:22;9.80;;;2.40;;
61897;SDS011;47850;50.274;18.908;2023-03-15T07:28:50;11.00;;;2.20;;
61897;SDS011;47850;50.274;18.908;2023-03-15T07:31:18;12.80;;;3.50;;
61897;SDS011;47850;50.274;18.908;2023-03-15T07:33:45;16.20;;;4.20;;
61897;SDS011;47850;50.274;18.908;2023-03-15T07:36:13;6.90;;;2.30;;
61897;SDS011;47850;50.274;18.908;2023-03-15T07:38:41;14.70;;;3.90;;
61897;SDS011;47850;50.274;18.908;2023-03-15T07:41:09;7.70;;;2.50;;
61897;SDS011;47850;50.274;18.908;2023-03-15T07:43:37;9.10;;;2.20;;
61897;SDS011;47850;50.274;18.908;2023-03-15T07:46:05;12.20;;;2.60;;
61897;SDS011;47850;50.274;18.908;2023-03-15T07:48:34;8.20;;;2.70;;
61897;SDS011;47850;50.274;18.908;2023-03-15T07:51:02;12.00;;;3.70;;
61897;SDS011;47850;50.274;18.908;2023-03-15T07:53:29;11.60;;;3.20;;
61897;SDS011;47850;50.274;18.908;2023-03-15T07:55:57;10.10;;;2.90;;
61897;SDS011;47850;50.274;18.908;2023-03-15T07:58:25;12.00;;;3.10;;
61897;SDS011;47850;50.274;18.908;2023-03-15T08:00:54;11.50;;;2.90;;
61897;SDS011;47850;50.274;18.908;2023-03-15T08:03:23;12.20;;;3.20;;
61897;SDS011;47850;50.274;18.908;2023-03-15T08:08:21;6.70;;;2.20;;
61897;SDS011;47850;50.274;18.908;2023-03-15T08:10:49;9.60;;;2.60;;
61897;SDS011;47850;50.274;18.908;2023-03-15T08:13:17;11.00;;;2.90;;
61897;SDS011;47850;50.274;18.908;2023-03-15T08:15:48;9.60;;;2.90;;
61897;SDS011;47850;50.274;18.908;2023-03-15T08:18:16;13.30;;;3.30;;
61897;SDS011;47850;50.274;18.908;2023-03-15T08:20:44;12.80;;;3.10;;
61897;SDS011;47850;50.274;18.908;2023-03-15T08:23:12;8.30;;;2.90;;
61897;SDS011;47850;50.274;18.908;2023-03-15T08:25:43;11.50;;;2.90;;
61897;SDS011;47850;50.274;18.908;2023-03-15T08:28:11;12.90;;;2.90;;
61897;SDS011;47850;50.274;18.908;2023-03-15T08:30:39;11.50;;;3.20;;
61897;SDS011;47850;50.274;18.908;2023-03-15T08:33:07;12.00;;;3.10;;
61897;SDS011;47850;50.274;18.908;2023-03-15T08:35:35;10.10;;;3.00;;
61897;SDS011;47850;50.274;18.908;2023-03-15T08:38:03;10.40;;;3.10;;
61897;SDS011;47850;50.274;18.908;2023-03-15T08:40:31;13.00;;;3.10;;
61897;SDS011;47850;50.274;18.908;2023-03-15T08:42:59;16.70;;;3.50;;
61897;SDS011;47850;50.274;18.908;2023-03-15T08:45:27;6.20;;;2.70;;
61897;SDS011;47850;50.274;18.908;2023-03-15T08:47:56;9.50;;;2.80;;
61897;SDS011;47850;50.274;18.908;2023-03-15T08:50:25;8.20;;;2.90;;
61897;SDS011;47850;50.274;18.908;2023-03-15T08:52:54;7.20;;;3.10;;
61897;SDS011;47850;50.274;18.908;2023-03-15T08:55:22;13.50;;;3.40;;
61897;SDS011;47850;50.274;18.908;2023-03-15T08:57:50;9.50;;;2.90;;
61897;SDS011;47850;50.274;18.908;2023-03-15T09:00:18;13.80;;;2.70;;
61897;SDS011;47850;50.274;18.908;2023-03-15T09:02:52;9.80;;;2.20;;
61897;SDS011;47850;50.274;18.908;2023-03-15T09:05:20;10.60;;;2.70;;
61897;SDS011;47850;50.274;18.908;2023-03-15T09:07:50;11.30;;;2.80;;
61897;SDS011;47850;50.274;18.908;2023-03-15T09:10:20;16.20;;;4.70;;
61897;SDS011;47850;50.274;18.908;2023-03-15T09:12:51;6.40;;;1.90;;
61897;SDS011;47850;50.274;18.908;2023-03-15T09:15:20;7.40;;;1.70;;
61897;SDS011;47850;50.274;18.908;2023-03-15T09:17:49;6.40;;;1.80;;
61897;SDS011;47850;50.274;18.908;2023-03-15T09:20:18;6.60;;;2.10;;
61897;SDS011;47850;50.274;18.908;2023-03-15T09:22:50;10.60;;;2.50;;
61897;SDS011;47850;50.274;18.908;2023-03-15T09:25:23;4.50;;;1.60;;
61897;SDS011;47850;50.274;18.908;2023-03-15T09:27:52;7.60;;;2.00;;
61897;SDS011;47850;50.274;18.908;2023-03-15T09:30:20;9.00;;;2.60;;
61897;SDS011;47850;50.274;18.908;2023-03-15T09:32:48;6.00;;;1.70;;
61897;SDS011;47850;50.274;18.908;2023-03-15T09:35:18;6.50;;;1.60;;
61897;SDS011;47850;50.274;18.908;2023-03-15T09:37:49;6.00;;;2.10;;
61897;SDS011;47850;50.274;18.908;2023-03-15T09:40:19;11.00;;;2.00;;
61897;SDS011;47850;50.274;18.908;2023-03-15T09:50:51;8.30;;;1.60;;
61897;SDS011;47850;50.274;18.908;2023-03-15T09:53:25;7.40;;;2.30;;
61897;SDS011;47850;50.274;18.908;2023-03-15T09:55:58;7.70;;;1.90;;
61897;SDS011;47850;50.274;18.908;2023-03-15T09:58:27;7.40;;;2.20;;
61897;SDS011;47850;50.274;18.908;2023-03-15T10:01:03;7.80;;;1.90;;
61897;SDS011;47850;50.274;18.908;2023-03-15T10:03:50;6.00;;;2.00;;
61897;SDS011;47850;50.274;18.908;2023-03-15T10:06:23;7.30;;;2.10;;
61897;SDS011;47850;50.274;18.908;2023-03-15T10:08:56;8.00;;;1.80;;
61897;SDS011;47850;50.274;18.908;2023-03-15T10:11:27;6.10;;;1.40;;
61897;SDS011;47850;50.274;18.908;2023-03-15T10:16:38;6.70;;;1.90;;
61897;SDS011;47850;50.274;18.908;2023-03-15T10:19:23;7.00;;;2.10;;
61897;SDS011;47850;50.274;18.908;2023-03-15T10:21:57;5.90;;;1.70;;
61897;SDS011;47850;50.274;18.908;2023-03-15T10:27:29;5.70;;;2.10;;
61897;SDS011;47850;50.274;18.908;2023-03-15T10:33:01;6.00;;;1.80;;
61897;SDS011;47850;50.274;18.908;2023-03-15T10:35:36;9.90;;;2.10;;
61897;SDS011;47850;50.274;18.908;2023-03-15T10:40:44;4.70;;;1.40;;
61897;SDS011;47850;50.274;18.908;2023-03-15T10:46:04;6.10;;;1.60;;
61897;SDS011;47850;50.274;18.908;2023-03-15T10:48:59;7.10;;;2.10;;
61897;SDS011;47850;50.274;18.908;2023-03-15T10:51:37;6.30;;;2.70;;
61897;SDS011;47850;50.274;18.908;2023-03-15T10:59:52;8.10;;;2.20;;
61897;SDS011;47850;50.274;18.908;2023-03-15T11:02:25;9.10;;;2.10;;
61897;SDS011;47850;50.274;18.908;2023-03-15T11:07:59;9.30;;;2.40;;
61897;SDS011;47850;50.274;18.908;2023-03-15T11:10:28;6.10;;;1.70;;
61897;SDS011;47850;50.274;18.908;2023-03-15T11:15:39;9.40;;;2.10;;
61897;SDS011;47850;50.274;18.908;2023-03-15T11:18:17;10.80;;;2.00;;
61897;SDS011;47850;50.274;18.908;2023-03-15T11:20:57;5.50;;;1.50;;
61897;SDS011;47850;50.274;18.908;2023-03-15T11:23:28;11.50;;;1.70;;
61897;SDS011;47850;50.274;18.908;2023-03-15T11:26:01;6.60;;;1.70;;
61897;SDS011;47850;50.274;18.908;2023-03-15T11:28:30;9.00;;;2.10;;
61897;SDS011;47850;50.274;18.908;2023-03-15T11:31:02;8.40;;;2.60;;
61897;SDS011;47850;50.274;18.908;2023-03-15T11:36:01;8.50;;;1.90;;
61897;SDS011;47850;50.274;18.908;2023-03-15T11:38:40;6.60;;;1.70;;
61897;SDS011;47850;50.274;18.908;2023-03-15T11:41:13;7.40;;;1.70;;
61897;SDS011;47850;50.274;18.908;2023-03-15T11:46:20;7.50;;;2.30;;
61897;SDS011;47850;50.274;18.908;2023-03-15T11:49:01;7.10;;;2.00;;
61897;SDS011;47850;50.274;18.908;2023-03-15T11:51:39;7.40;;;1.90;;
61897;SDS011;47850;50.274;18.908;2023-03-15T11:54:14;6.20;;;2.10;;
61897;SDS011;47850;50.274;18.908;2023-03-15T11:57:00;8.70;;;2.30;;
61897;SDS011;47850;50.274;18.908;2023-03-15T11:59:38;7.80;;;2.10;;
61897;SDS011;47850;50.274;18.908;2023-03-15T12:04:44;10.30;;;2.10;;
61897;SDS011;47850;50.274;18.908;2023-03-15T12:10:28;7.60;;;2.40;;
61897;SDS011;47850;50.274;18.908;2023-03-15T12:13:06;9.90;;;2.70;;
61897;SDS011;47850;50.274;18.908;2023-03-15T12:15:44;9.60;;;2.50;;
61897;SDS011;47850;50.274;18.908;2023-03-15T12:18:15;6.10;;;1.80;;
61897;SDS011;47850;50.274;18.908;2023-03-15T12:20:49;5.90;;;1.90;;
61897;SDS011;47850;50.274;18.908;2023-03-15T12:23:32;6.80;;;1.70;;
61897;SDS011;47850;50.274;18.908;2023-03-15T12:26:06;6.90;;;1.70;;
61897;SDS011;47850;50.274;18.908;2023-03-15T12:28:41;8.50;;;1.80;;
61897;SDS011;47850;50.274;18.908;2023-03-15T12:31:18;4.00;;;1.60;;
61897;SDS011;47850;50.274;18.908;2023-03-15T12:33:48;13.70;;;3.50;;
61897;SDS011;47850;50.274;18.908;2023-03-15T12:38:57;14.10;;;4.00;;
61897;SDS011;47850;50.274;18.908;2023-03-15T12:41:50;7.40;;;2.30;;
61897;SDS011;47850;50.274;18.908;2023-03-15T12:44:22;20.00;;;6.30;;
61897;SDS011;47850;50.274;18.908;2023-03-15T12:51:59;6.20;;;2.20;;
61897;SDS011;47850;50.274;18.908;2023-03-15T12:57:12;7.80;;;3.20;;
61897;SDS011;47850;50.274;18.908;2023-03-15T12:59:50;7.30;;;2.20;;
61897;SDS011;47850;50.274;18.908;2023-03-15T13:04:57;11.80;;;2.90;;
61897;SDS011;47850;50.274;18.908;2023-03-15T13:13:10;7.80;;;2.00;;
61897;SDS011;47850;50.274;18.908;2023-03-15T13:27:20;7.60;;;1.90;;
61897;SDS011;47850;50.274;18.908;2023-03-15T13:35:52;6.50;;;2.60;;
61897;SDS011;47850;50.274;18.908;2023-03-15T13:38:30;12.70;;;3.70;;
61897;SDS011;47850;50.274;18.908;2023-03-15T13:43:52;6.20;;;1.90;;
61897;SDS011;47850;50.274;18.908;2023-03-15T13:46:23;7.80;;;2.20;;
61897;SDS011;47850;50.274;18.908;2023-03-15T13:48:53;7.90;;;2.60;;
61897;SDS011;47850;50.274;18.908;2023-03-15T13:51:26;7.50;;;2.40;;
61897;SDS011;47850;50.274;18.908;2023-03-15T13:54:02;6.00;;;1.80;;
61897;SDS011;47850;50.274;18.908;2023-03-15T13:56:34;5.60;;;2.30;;
61897;SDS011;47850;50.274;18.908;2023-03-15T13:59:04;9.70;;;2.90;;
61897;SDS011;47850;50.274;18.908;2023-03-15T14:01:32;5.30;;;1.90;;
61897;SDS011;47850;50.274;18.908;2023-03-15T14:04:08;9.10;;;2.20;;
61897;SDS011;47850;50.274;18.908;2023-03-15T14:06:41;12.70;;;3.00;;
61897;SDS011;47850;50.274;18.908;2023-03-15T14:09:19;9.60;;;2.80;;
61897;SDS011;47850;50.274;18.908;2023-03-15T14:12:04;7.10;;;2.50;;
61897;SDS011;47850;50.274;18.908;2023-03-15T14:14:50;7.50;;;2.60;;
61897;SDS011;47850;50.274;18.908;2023-03-15T14:17:25;8.80;;;3.10;;
61897;SDS011;47850;50.274;18.908;2023-03-15T14:19:56;8.60;;;2.00;;
61897;SDS011;47850;50.274;18.908;2023-03-15T14:22:35;6.60;;;2.20;;
61897;SDS011;47850;50.274;18.908;2023-03-15T14:25:16;10.30;;;2.20;;
61897;SDS011;47850;50.274;18.908;2023-03-15T14:27:47;6.00;;;2.30;;
61897;SDS011;47850;50.274;18.908;2023-03-15T14:30:17;3.30;;;1.60;;
61897;SDS011;47850;50.274;18.908;2023-03-15T14:32:53;8.80;;;2.10;;
61897;SDS011;47850;50.274;18.908;2023-03-15T14:40:35;8.20;;;2.60;;
61897;SDS011;47850;50.274;18.908;2023-03-15T14:43:06;6.90;;;2.40;;
61897;SDS011;47850;50.274;18.908;2023-03-15T14:45:35;10.90;;;2.70;;
61897;SDS011;47850;50.274;18.908;2023-03-15T14:48:06;6.60;;;2.30;;
61897;SDS011;47850;50.274;18.908;2023-03-15T14:50:42;9.20;;;2.40;;
61897;SDS011;47850;50.274;18.908;2023-03-15T14:53:13;5.90;;;2.20;;
61897;SDS011;47850;50.274;18.908;2023-03-15T14:55:44;8.70;;;2.20;;
61897;SDS011;47850;50.274;18.908;2023-03-15T14:58:13;8.00;;;3.20;;
61897;SDS011;47850;50.274;18.908;2023-03-15T15:00:45;12.00;;;3.80;;
61897;SDS011;47850;50.274;18.908;2023-03-15T15:03:17;9.60;;;2.80;;
61897;SDS011;47850;50.274;18.908;2023-03-15T15:05:52;9.60;;;3.30;;
61897;SDS011;47850;50.274;18.908;2023-03-15T15:08:20;8.50;;;3.60;;
61897;SDS011;47850;50.274;18.908;2023-03-15T15:10:51;5.90;;;2.40;;
61897;SDS011;47850;50.274;18.908;2023-03-15T15:13:26;6.80;;;2.10;;
61897;SDS011;47850;50.274;18.908;2023-03-15T15:15:56;8.70;;;2.30;;
61897;SDS011;47850;50.274;18.908;2023-03-15T15:18:25;7.10;;;2.60;;
61897;SDS011;47850;50.274;18.908;2023-03-15T15:20:55;6.90;;;2.80;;
61897;SDS011;47850;50.274;18.908;2023-03-15T15:26:01;8.50;;;2.60;;
61897;SDS011;47850;50.274;18.908;2023-03-15T15:28:31;16.30;;;7.00;;
61897;SDS011;47850;50.274;18.908;2023-03-15T15:31:00;13.80;;;5.10;;
61897;SDS011;47850;50.274;18.908;2023-03-15T15:33:28;9.30;;;3.80;;
61897;SDS011;47850;50.274;18.908;2023-03-15T15:35:55;10.70;;;3.60;;
61897;SDS011;47850;50.274;18.908;2023-03-15T15:38:26;10.90;;;3.60;;
61897;SDS011;47850;50.274;18.908;2023-03-15T15:41:21;12.30;;;4.20;;
61897;SDS011;47850;50.274;18.908;2023-03-15T15:43:50;9.10;;;3.00;;
61897;SDS011;47850;50.274;18.908;2023-03-15T15:46:18;10.70;;;3.70;;
61897;SDS011;47850;50.274;18.908;2023-03-15T15:48:47;10.50;;;3.60;;
61897;SDS011;47850;50.274;18.908;2023-03-15T15:53:58;12.20;;;3.40;;
61897;SDS011;47850;50.274;18.908;2023-03-15T15:56:32;10.30;;;3.60;;
61897;SDS011;47850;50.274;18.908;2023-03-15T15:59:03;9.50;;;3.20;;
61897;SDS011;47850;50.274;18.908;2023-03-15T16:01:32;10.70;;;3.50;;
61897;SDS011;47850;50.274;18.908;2023-03-15T16:04:00;11.70;;;3.70;;
61897;SDS011;47850;50.274;18.908;2023-03-15T16:06:28;8.30;;;3.50;;
61897;SDS011;47850;50.274;18.908;2023-03-15T16:08:57;8.90;;;3.10;;
61897;SDS011;47850;50.274;18.908;2023-03-15T16:11:25;6.50;;;2.40;;
61897;SDS011;47850;50.274;18.908;2023-03-15T16:13:55;9.30;;;2.50;;
61897;SDS011;47850;50.274;18.908;2023-03-15T16:16:23;7.10;;;2.20;;
61897;SDS011;47850;50.274;18.908;2023-03-15T16:18:51;7.50;;;2.40;;
61897;SDS011;47850;50.274;18.908;2023-03-15T16:21:22;7.40;;;2.50;;
61897;SDS011;47850;50.274;18.908;2023-03-15T16:24:02;10.10;;;2.80;;
61897;SDS011;47850;50.274;18.908;2023-03-15T16:26:55;7.60;;;2.30;;
61897;SDS011;47850;50.274;18.908;2023-03-15T16:32:05;15.60;;;6.10;;
61897;SDS011;47850;50.274;18.908;2023-03-15T16:34:33;14.30;;;5.60;;
61897;SDS011;47850;50.274;18.908;2023-03-15T16:37:01;11.80;;;4.60;;
61897;SDS011;47850;50.274;18.908;2023-03-15T16:39:29;17.60;;;4.90;;
61897;SDS011;47850;50.274;18.908;2023-03-15T16:41:58;13.00;;;4.30;;